createdAt,value
2019-01-14T00:01:12.570Z,3.03
2019-01-14T00:03:42.812Z,10.60
2019-01-14T00:06:12.492Z,8.93
2019-01-14T00:08:42.162Z,8.30
2019-01-14T00:11:13.544Z,10.85
2019-01-14T00:13:43.226Z,6.90
2019-01-14T00:16:12.967Z,2.27
2019-01-14T00:18:42.714Z,7.17
2019-01-14T00:21:12.695Z,5.27
2019-01-14T00:23:42.603Z,5.93
2019-01-14T00:26:12.331Z,5.37
2019-01-14T00:28:41.998Z,7.60
2019-01-14T00:31:11.661Z,5.63
2019-01-14T00:33:41.326Z,4.43
2019-01-14T00:36:17.407Z,10.73
2019-01-14T00:38:42.444Z,7.33
2019-01-14T00:41:13.059Z,7.08
2019-01-14T00:43:43.093Z,5.97
2019-01-14T00:46:12.828Z,6.30
2019-01-14T00:48:42.517Z,5.10
2019-01-14T00:51:12.507Z,6.50
2019-01-14T00:53:43.936Z,4.90
2019-01-14T00:56:13.600Z,13.63
2019-01-14T00:58:43.298Z,5.12
2019-01-14T01:01:12.958Z,6.37
2019-01-14T01:03:42.634Z,6.17
2019-01-14T01:06:12.433Z,4.93
2019-01-14T01:08:42.532Z,4.37
2019-01-14T01:11:12.195Z,7.75
2019-01-14T01:13:41.936Z,8.47
2019-01-14T01:16:11.608Z,5.87
2019-01-14T01:18:41.634Z,13.53
2019-01-14T01:21:11.296Z,4.67
2019-01-14T01:23:41.011Z,7.40
2019-01-14T01:26:11.006Z,12.50
2019-01-14T01:28:40.921Z,9.63
2019-01-14T01:31:10.795Z,8.27
2019-01-14T01:33:40.594Z,10.20
2019-01-14T01:36:10.260Z,11.37
2019-01-14T01:38:39.931Z,10.15
2019-01-14T01:41:09.599Z,6.92
2019-01-14T01:43:39.582Z,12.07
2019-01-14T01:46:09.252Z,4.90
2019-01-14T01:48:38.931Z,6.70
2019-01-14T01:51:08.609Z,8.03
2019-01-14T01:53:38.625Z,11.53
2019-01-14T01:56:08.612Z,11.80
2019-01-14T01:58:38.291Z,8.88
2019-01-14T02:01:07.969Z,12.07
2019-01-14T02:03:37.641Z,13.13
2019-01-14T02:06:07.511Z,11.87
2019-01-14T02:08:37.185Z,9.70
2019-01-14T02:11:06.994Z,8.13
2019-01-14T02:13:36.676Z,7.70
2019-01-14T02:16:06.409Z,7.30
2019-01-14T02:18:36.084Z,7.27
2019-01-14T02:21:05.835Z,7.27
2019-01-14T02:23:35.763Z,12.93
2019-01-14T02:26:05.680Z,8.43
2019-01-14T02:28:35.349Z,10.77
2019-01-14T02:31:05.187Z,9.73
2019-01-14T02:33:34.860Z,6.43
2019-01-14T02:36:05.296Z,11.93
2019-01-14T02:38:35.305Z,9.33
2019-01-14T02:41:05.215Z,15.80
2019-01-14T02:43:34.914Z,14.20
2019-01-14T02:46:04.651Z,13.63
2019-01-14T02:48:34.328Z,17.63
2019-01-14T02:51:04.099Z,15.33
2019-01-14T02:53:34.083Z,17.30
2019-01-14T02:56:03.810Z,10.53
2019-01-14T02:58:33.671Z,14.87
2019-01-14T03:01:03.666Z,11.50
2019-01-14T03:03:33.334Z,21.97
2019-01-14T03:06:03.027Z,13.83
2019-01-14T03:08:32.689Z,12.90
2019-01-14T03:11:02.373Z,16.17
2019-01-14T03:13:32.042Z,13.37
2019-01-14T03:16:01.689Z,14.70
2019-01-14T03:18:31.616Z,18.07
2019-01-14T03:21:01.283Z,14.10
2019-01-14T03:23:31.198Z,14.63
2019-01-14T03:26:01.102Z,17.93
2019-01-14T03:28:30.773Z,21.13
2019-01-14T03:31:02.393Z,18.60
2019-01-14T03:33:32.242Z,21.27
2019-01-14T03:36:01.895Z,18.60
2019-01-14T03:38:31.556Z,17.70
2019-01-14T03:41:01.323Z,21.63
2019-01-14T03:43:30.965Z,12.40
2019-01-14T03:46:00.623Z,25.57
2019-01-14T03:48:30.548Z,21.90
2019-01-14T03:51:00.454Z,20.90
2019-01-14T03:53:30.113Z,20.60
2019-01-14T03:55:59.789Z,18.77
2019-01-14T03:58:29.610Z,16.53
2019-01-14T04:00:59.360Z,19.40
2019-01-14T04:03:29.025Z,17.47
2019-01-14T04:05:58.685Z,17.17
2019-01-14T04:08:28.360Z,21.70
2019-01-14T04:10:58.025Z,16.90
2019-01-14T04:13:27.702Z,21.47
2019-01-14T04:15:57.357Z,15.97
2019-01-14T04:18:27.051Z,19.90
2019-01-14T04:20:57.050Z,25.47
2019-01-14T04:23:26.731Z,22.13
2019-01-14T04:25:56.395Z,16.77
2019-01-14T04:28:26.062Z,19.10
2019-01-14T04:30:55.772Z,21.83
2019-01-14T04:33:25.435Z,19.57
2019-01-14T04:35:55.186Z,22.20
2019-01-14T04:38:24.847Z,17.67
2019-01-14T04:40:54.532Z,24.93
2019-01-14T04:43:26.384Z,26.10
2019-01-14T04:45:56.880Z,19.67
2019-01-14T04:48:27.356Z,15.33
2019-01-14T04:50:57.067Z,11.70
2019-01-14T04:53:26.731Z,25.43
2019-01-14T04:55:56.408Z,21.57
2019-01-14T04:58:26.077Z,23.73
2019-01-14T05:00:55.758Z,10.53
2019-01-14T05:03:25.429Z,15.03
2019-01-14T05:05:55.436Z,22.80
2019-01-14T05:08:25.102Z,31.27
2019-01-14T05:10:55.139Z,28.07
2019-01-14T05:13:25.048Z,20.13
2019-01-14T05:15:54.982Z,27.50
2019-01-14T05:18:24.638Z,21.03
2019-01-14T05:20:54.313Z,22.17
2019-01-14T05:23:23.977Z,23.37
2019-01-14T05:25:53.643Z,30.80
2019-01-14T05:28:23.312Z,24.77
2019-01-14T05:30:52.976Z,25.62
2019-01-14T05:33:22.646Z,25.77
2019-01-14T05:35:52.321Z,18.33
2019-01-14T05:38:22.340Z,19.53
2019-01-14T05:40:52.043Z,30.35
2019-01-14T05:43:21.703Z,18.25
2019-01-14T05:45:51.440Z,23.13
2019-01-14T05:48:21.302Z,24.57
2019-01-14T05:50:50.974Z,28.12
2019-01-14T05:53:20.640Z,35.80
2019-01-14T05:55:50.569Z,26.43
2019-01-14T05:58:20.315Z,23.77
2019-01-14T06:00:50.958Z,35.13
2019-01-14T06:03:20.779Z,22.65
2019-01-14T06:05:50.457Z,26.60
2019-01-14T06:08:20.500Z,17.47
2019-01-14T06:10:50.302Z,23.95
2019-01-14T06:13:20.312Z,21.80
2019-01-14T06:15:50.072Z,26.10
2019-01-14T06:18:19.832Z,24.30
2019-01-14T06:20:49.499Z,21.43
2019-01-14T06:23:19.450Z,21.13
2019-01-14T06:25:49.128Z,16.90
2019-01-14T06:28:18.792Z,24.40
2019-01-14T06:30:48.464Z,24.10
2019-01-14T06:33:18.131Z,23.50
2019-01-14T06:35:48.236Z,27.67
2019-01-14T06:38:17.908Z,20.00
2019-01-14T06:40:47.672Z,18.47
2019-01-14T06:43:17.339Z,21.23
2019-01-14T06:45:47.034Z,14.73
2019-01-14T06:48:17.047Z,22.60
2019-01-14T06:50:46.725Z,28.53
2019-01-14T06:53:16.402Z,28.90
2019-01-14T06:55:46.182Z,22.07
2019-01-14T06:58:15.921Z,21.75
2019-01-14T07:00:45.864Z,21.63
2019-01-14T07:03:15.531Z,15.87
2019-01-14T07:05:45.199Z,30.85
2019-01-14T07:08:14.950Z,25.93
2019-01-14T07:10:44.654Z,31.07
2019-01-14T07:13:14.329Z,24.60
2019-01-14T07:15:44.082Z,22.13
2019-01-14T07:18:13.744Z,23.40
2019-01-14T07:20:45.336Z,22.35
2019-01-14T07:23:15.092Z,26.30
2019-01-14T07:25:45.057Z,22.53
2019-01-14T07:28:14.717Z,29.35
2019-01-14T07:30:44.407Z,21.57
2019-01-14T07:33:14.128Z,34.85
2019-01-14T07:35:44.166Z,29.12
2019-01-14T07:38:14.007Z,22.45
2019-01-14T07:40:43.743Z,26.82
2019-01-14T07:43:13.408Z,19.60
2019-01-14T07:45:43.089Z,27.10
2019-01-14T07:48:12.764Z,31.33
2019-01-14T07:50:42.441Z,29.90
2019-01-14T07:53:12.435Z,24.63
2019-01-14T07:55:42.136Z,22.37
2019-01-14T07:58:11.883Z,21.57
2019-01-14T08:00:41.570Z,16.93
2019-01-14T08:03:11.311Z,26.80
2019-01-14T08:05:42.065Z,17.93
2019-01-14T08:08:14.209Z,16.45
2019-01-14T08:10:44.086Z,24.05
2019-01-14T08:13:13.849Z,19.47
2019-01-14T08:15:44.846Z,17.20
2019-01-14T08:18:14.843Z,16.23
2019-01-14T08:20:44.518Z,9.78
2019-01-14T08:23:14.565Z,16.23
2019-01-14T08:25:44.583Z,13.63
2019-01-14T08:28:14.600Z,21.30
2019-01-14T08:30:44.291Z,14.25
2019-01-14T08:33:13.991Z,15.10
2019-01-14T08:35:43.671Z,10.83
2019-01-14T08:38:13.340Z,10.97
2019-01-14T08:40:43.018Z,12.03
2019-01-14T08:43:12.683Z,11.27
2019-01-14T08:45:42.442Z,13.03
2019-01-14T08:48:12.455Z,10.90
2019-01-14T08:50:42.142Z,14.68
2019-01-14T08:53:12.097Z,10.33
2019-01-14T08:55:41.782Z,16.10
2019-01-14T08:58:11.614Z,10.93
2019-01-14T09:00:41.300Z,13.87
2019-01-14T09:03:11.943Z,11.48
2019-01-14T09:05:41.970Z,10.35
2019-01-14T09:08:11.657Z,11.00
2019-01-14T09:10:41.394Z,14.45
2019-01-14T09:13:11.079Z,11.73
2019-01-14T09:15:40.833Z,13.50
2019-01-14T09:18:10.654Z,13.25
2019-01-14T09:20:40.467Z,18.17
2019-01-14T09:23:10.219Z,9.60
2019-01-14T09:25:41.003Z,12.95
2019-01-14T09:28:10.720Z,8.25
2019-01-14T09:30:40.474Z,19.75
2019-01-14T09:33:10.156Z,8.43
2019-01-14T09:35:39.828Z,16.27
2019-01-14T09:38:09.523Z,11.10
2019-01-14T09:40:39.196Z,11.00
2019-01-14T09:43:08.880Z,12.68
2019-01-14T09:45:38.554Z,18.07
2019-01-14T09:48:08.479Z,12.70
2019-01-14T09:50:38.224Z,7.57
2019-01-14T09:53:08.267Z,10.40
2019-01-14T09:55:38.068Z,12.67
2019-01-14T09:58:07.761Z,12.67
2019-01-14T10:00:37.432Z,12.53
2019-01-14T10:03:07.510Z,13.72
2019-01-14T10:05:37.174Z,8.87
2019-01-14T10:08:06.875Z,11.43
2019-01-14T10:10:36.609Z,14.70
2019-01-14T10:13:06.295Z,11.00
2019-01-14T10:15:36.048Z,13.22
2019-01-14T10:18:06.072Z,9.17
2019-01-14T10:20:35.811Z,7.83
2019-01-14T10:23:05.901Z,13.38
2019-01-14T10:25:35.635Z,12.70
2019-01-14T10:28:05.322Z,11.10
2019-01-14T10:30:35.051Z,9.80
2019-01-14T10:33:05.081Z,12.10
2019-01-14T10:35:35.819Z,15.78
2019-01-14T10:38:05.996Z,11.60
2019-01-14T10:40:35.810Z,12.82
2019-01-14T10:43:05.671Z,12.05
2019-01-14T10:45:36.314Z,9.33
2019-01-14T10:48:06.784Z,14.37
2019-01-14T10:50:36.864Z,10.77
2019-01-14T10:53:06.530Z,9.88
2019-01-14T10:55:36.450Z,13.10
2019-01-14T10:58:06.526Z,17.57
2019-01-14T11:00:36.266Z,20.10
2019-01-14T11:03:06.993Z,14.07
2019-01-14T11:05:37.007Z,11.88
2019-01-14T11:08:06.764Z,14.87
2019-01-14T11:10:36.432Z,17.07
2019-01-14T11:13:06.464Z,11.40
2019-01-14T11:15:36.195Z,14.50
2019-01-14T11:18:05.948Z,13.03
2019-01-14T11:20:36.091Z,9.87
2019-01-14T11:23:05.844Z,12.43
2019-01-14T11:25:35.832Z,14.13
2019-01-14T11:28:06.446Z,14.13
2019-01-14T11:30:36.103Z,11.23
2019-01-14T11:33:06.016Z,14.17
2019-01-14T11:35:37.003Z,17.10
2019-01-14T11:38:08.867Z,11.85
2019-01-14T11:40:40.617Z,10.72
2019-01-14T11:43:10.302Z,13.03
2019-01-14T11:45:39.974Z,14.13
2019-01-14T11:48:09.734Z,13.83
2019-01-14T11:50:39.403Z,8.73
2019-01-14T11:53:09.367Z,11.47
2019-01-14T11:55:39.036Z,6.90
2019-01-14T11:58:08.707Z,12.17
2019-01-14T12:00:38.707Z,16.77
2019-01-14T12:03:08.711Z,11.03
2019-01-14T12:05:38.426Z,9.27
2019-01-14T12:08:08.256Z,14.73
2019-01-14T12:11:17.189Z,10.50
2019-01-14T12:13:47.175Z,7.67
2019-01-14T12:16:16.850Z,12.00
2019-01-14T12:18:46.526Z,8.50
2019-01-14T12:21:16.204Z,7.00
2019-01-14T12:36:18.055Z,7.83
2019-01-14T12:38:47.811Z,9.30
2019-01-14T12:41:17.487Z,9.47
2019-01-14T12:43:47.169Z,9.43
2019-01-14T12:46:16.936Z,5.60
2019-01-14T12:48:46.934Z,10.45
2019-01-14T12:51:17.032Z,9.70
2019-01-14T12:53:47.101Z,5.90
2019-01-14T12:56:17.153Z,14.43
2019-01-14T12:58:46.981Z,7.17
2019-01-14T13:01:16.971Z,9.75
2019-01-14T13:03:46.963Z,8.45
2019-01-14T13:06:16.684Z,11.45
2019-01-14T13:08:46.377Z,5.80
2019-01-14T13:11:16.054Z,9.10
2019-01-14T13:13:46.113Z,8.78
2019-01-14T13:16:15.929Z,11.93
2019-01-14T13:18:45.751Z,11.53
2019-01-14T13:21:15.737Z,10.37
2019-01-14T13:23:45.751Z,8.00
2019-01-14T13:26:15.817Z,7.60
2019-01-14T13:28:45.512Z,5.97
2019-01-14T13:31:15.221Z,10.60
2019-01-14T13:33:45.468Z,18.30
2019-01-14T13:36:15.293Z,6.27
2019-01-14T13:38:45.227Z,8.60
2019-01-14T13:41:14.895Z,12.60
2019-01-14T13:43:44.575Z,8.53
2019-01-14T13:46:14.591Z,5.33
2019-01-14T13:48:44.574Z,4.90
2019-01-14T13:51:14.303Z,8.90
2019-01-14T13:53:44.008Z,6.67
2019-01-14T13:56:13.961Z,8.37
2019-01-14T13:58:43.971Z,21.55
2019-01-14T14:01:13.638Z,4.90
2019-01-14T14:03:43.969Z,12.63
2019-01-14T14:06:13.769Z,5.73
2019-01-14T14:08:43.438Z,8.57
2019-01-14T14:11:13.116Z,13.25
2019-01-14T14:13:42.813Z,9.80
2019-01-14T14:16:12.616Z,9.17
2019-01-14T14:18:42.295Z,16.77
2019-01-14T14:21:11.992Z,8.90
2019-01-14T14:23:42.920Z,8.93
2019-01-14T14:26:12.710Z,9.83
2019-01-14T14:28:42.554Z,13.73
2019-01-14T14:31:13.850Z,9.07
2019-01-14T14:33:43.815Z,8.03
2019-01-14T14:36:13.630Z,9.30
2019-01-14T14:38:43.324Z,13.58
2019-01-14T14:41:12.997Z,8.40
2019-01-14T14:43:43.168Z,7.60
2019-01-14T14:46:12.847Z,12.63
2019-01-14T14:48:42.995Z,11.93
2019-01-14T14:51:13.177Z,9.43
2019-01-14T14:53:42.963Z,8.40
2019-01-14T14:56:12.871Z,8.13
2019-01-14T14:58:42.800Z,7.17
2019-01-14T15:01:12.547Z,8.45
2019-01-14T15:03:42.706Z,12.57
2019-01-14T15:06:12.681Z,14.57
2019-01-14T15:08:42.617Z,6.17
2019-01-14T15:11:12.392Z,7.22
2019-01-14T15:13:42.074Z,10.10
2019-01-14T15:16:12.028Z,7.37
2019-01-14T15:18:42.270Z,11.60
2019-01-14T15:21:11.955Z,9.93
2019-01-14T15:23:41.663Z,11.75
2019-01-14T15:26:11.320Z,7.90
2019-01-14T15:28:41.400Z,8.97
2019-01-14T15:31:11.082Z,6.08
2019-01-14T15:33:40.766Z,3.77
2019-01-14T15:36:11.634Z,9.50
2019-01-14T15:38:41.313Z,9.50
2019-01-14T15:41:11.371Z,10.87
2019-01-14T15:43:41.113Z,7.33
2019-01-14T15:46:11.107Z,9.07
2019-01-14T15:48:41.149Z,12.43
2019-01-14T15:51:11.219Z,5.17
2019-01-14T15:53:41.557Z,9.20
2019-01-14T15:56:11.827Z,5.30
2019-01-14T15:58:41.988Z,3.23
2019-01-14T16:01:11.742Z,4.35
2019-01-14T16:03:41.493Z,6.67
2019-01-14T16:06:12.260Z,6.17
2019-01-14T16:08:41.929Z,6.42
2019-01-14T16:11:14.192Z,5.80
2019-01-14T16:13:44.450Z,4.77
2019-01-14T16:16:14.204Z,4.00
2019-01-14T16:18:44.195Z,4.77
2019-01-14T16:21:13.882Z,6.97
2019-01-14T16:23:44.043Z,5.30
2019-01-14T16:26:13.722Z,4.37
2019-01-14T16:28:43.445Z,5.97
2019-01-14T16:31:13.109Z,4.67
2019-01-14T16:33:42.847Z,6.47
2019-01-14T16:36:12.756Z,5.33
2019-01-14T16:38:42.760Z,5.77
2019-01-14T16:41:12.472Z,4.50
2019-01-14T16:43:42.129Z,5.03
2019-01-14T16:46:11.893Z,9.53
2019-01-14T16:48:42.020Z,7.43
2019-01-14T16:51:12.174Z,9.63
2019-01-14T16:53:41.846Z,7.62
2019-01-14T16:56:11.752Z,4.73
2019-01-14T16:58:41.580Z,5.87
2019-01-14T17:01:11.273Z,8.03
2019-01-14T17:03:41.276Z,10.50
2019-01-14T17:06:11.291Z,8.73
2019-01-14T17:08:41.024Z,8.20
2019-01-14T17:11:11.113Z,7.00
2019-01-14T17:13:41.014Z,4.67
2019-01-14T17:16:11.046Z,17.33
2019-01-14T17:18:40.800Z,8.93
2019-01-14T17:21:10.896Z,7.40
2019-01-14T17:23:40.841Z,9.67
2019-01-14T17:26:11.015Z,9.25
2019-01-14T17:28:41.125Z,5.05
2019-01-14T17:31:10.803Z,9.45
2019-01-14T17:33:40.744Z,17.03
2019-01-14T17:36:10.770Z,10.33
2019-01-14T17:38:40.749Z,10.23
2019-01-14T17:41:11.497Z,8.47
2019-01-14T17:43:41.216Z,9.23
2019-01-14T17:46:10.966Z,7.53
2019-01-14T17:48:40.672Z,8.87
2019-01-14T17:51:10.752Z,12.30
2019-01-14T17:53:40.548Z,9.77
2019-01-14T17:56:10.844Z,12.10
2019-01-14T17:58:40.512Z,6.60
2019-01-14T18:01:10.189Z,7.30
2019-01-14T18:03:40.217Z,10.85
2019-01-14T18:06:09.961Z,7.03
2019-01-14T18:08:39.957Z,7.03
2019-01-14T18:11:09.638Z,10.40
2019-01-14T18:13:39.663Z,13.93
2019-01-14T18:16:09.603Z,12.77
2019-01-14T18:18:39.278Z,8.53
2019-01-14T18:21:13.773Z,10.05
2019-01-14T18:23:40.459Z,8.63
2019-01-14T18:26:10.461Z,6.67
2019-01-14T18:28:40.125Z,11.43
2019-01-14T18:31:09.800Z,9.53
2019-01-14T18:33:39.476Z,6.45
2019-01-14T18:36:09.165Z,14.97
2019-01-14T18:38:38.840Z,6.83
2019-01-14T18:41:09.353Z,10.60
2019-01-14T18:43:39.302Z,11.30
2019-01-14T18:46:08.988Z,4.13
2019-01-14T18:48:38.678Z,7.17
2019-01-14T18:51:08.665Z,7.83
2019-01-14T18:53:38.330Z,4.40
2019-01-14T18:56:08.016Z,5.10
2019-01-14T18:58:37.685Z,11.97
2019-01-14T19:01:07.368Z,7.70
2019-01-14T19:03:37.034Z,11.08
2019-01-14T19:06:07.012Z,7.65
2019-01-14T19:08:37.364Z,14.58
2019-01-14T19:11:07.051Z,11.75
2019-01-14T19:13:37.065Z,6.90
2019-01-14T19:16:06.747Z,11.20
2019-01-14T19:18:36.656Z,5.67
2019-01-14T19:21:06.529Z,6.80
2019-01-14T19:23:36.207Z,10.37
2019-01-14T19:26:05.907Z,10.73
2019-01-14T19:28:35.853Z,11.85
2019-01-14T19:31:05.754Z,10.43
2019-01-14T19:33:35.754Z,5.77
2019-01-14T19:36:05.587Z,7.10
2019-01-14T19:38:35.568Z,6.90
2019-01-14T19:41:05.592Z,9.13
2019-01-14T19:43:35.512Z,9.60
2019-01-14T19:46:05.683Z,7.60
2019-01-14T19:48:35.622Z,7.47
2019-01-14T19:51:05.536Z,4.85
2019-01-14T19:53:35.229Z,10.50
2019-01-14T19:56:05.055Z,9.98
2019-01-14T19:58:35.700Z,14.25
2019-01-14T20:01:05.806Z,6.33
2019-01-14T20:03:35.480Z,10.30
2019-01-14T20:06:05.552Z,6.10
2019-01-14T20:08:35.376Z,12.63
2019-01-14T20:11:09.244Z,9.73
2019-01-14T20:13:36.829Z,11.73
2019-01-14T20:16:06.692Z,11.57
2019-01-14T20:18:36.675Z,9.90
2019-01-14T20:21:06.576Z,6.00
2019-01-14T20:23:36.234Z,9.40
2019-01-14T20:26:06.033Z,7.80
2019-01-14T20:28:35.697Z,14.70
2019-01-14T20:31:05.439Z,9.83
2019-01-14T20:33:35.101Z,9.35
2019-01-14T20:36:05.249Z,8.63
2019-01-14T20:38:35.181Z,14.38
2019-01-14T20:41:04.954Z,8.03
2019-01-14T20:43:34.621Z,9.60
2019-01-14T20:46:04.542Z,6.10
2019-01-14T20:48:34.486Z,14.13
2019-01-14T20:51:05.717Z,7.23
2019-01-14T20:53:36.681Z,12.20
2019-01-14T20:56:06.889Z,13.98
2019-01-14T20:58:36.618Z,10.50
2019-01-14T21:01:06.618Z,12.10
2019-01-14T21:03:36.648Z,13.60
2019-01-14T21:06:06.558Z,7.33
2019-01-14T21:08:36.576Z,11.10
2019-01-14T21:11:06.592Z,13.77
2019-01-14T21:13:36.278Z,6.03
2019-01-14T21:16:06.047Z,6.17
2019-01-14T21:18:35.727Z,6.30
2019-01-14T21:21:06.116Z,10.43
2019-01-14T21:23:36.171Z,14.40
2019-01-14T21:26:05.931Z,9.57
2019-01-14T21:28:36.587Z,9.70
2019-01-14T21:31:06.333Z,8.53
2019-01-14T21:33:36.028Z,12.67
2019-01-14T21:36:06.209Z,6.30
2019-01-14T21:38:35.968Z,6.63
2019-01-14T21:41:06.042Z,15.10
2019-01-14T21:43:35.741Z,10.77
2019-01-14T21:46:05.480Z,9.83
2019-01-14T21:48:35.294Z,8.37
2019-01-14T21:51:05.121Z,7.70
2019-01-14T21:53:35.195Z,6.67
2019-01-14T21:56:04.993Z,9.43
2019-01-14T21:58:34.679Z,11.80
2019-01-14T22:01:04.609Z,8.15
2019-01-14T22:03:34.747Z,9.10
2019-01-14T22:06:04.554Z,8.23
2019-01-14T22:08:34.372Z,11.45
2019-01-14T22:11:04.135Z,8.83
2019-01-14T22:13:33.809Z,5.10
2019-01-14T22:16:03.799Z,8.30
2019-01-14T22:18:33.467Z,8.57
2019-01-14T22:21:03.134Z,8.03
2019-01-14T22:23:32.876Z,9.93
2019-01-14T22:26:02.797Z,8.00
2019-01-14T22:28:32.733Z,13.98
2019-01-14T22:31:02.712Z,10.20
2019-01-14T22:33:33.170Z,16.23
2019-01-14T22:36:02.848Z,8.73
2019-01-14T22:38:32.813Z,9.63
2019-01-14T22:41:02.524Z,5.60
2019-01-14T22:43:32.539Z,9.93
2019-01-14T22:46:02.550Z,9.30
2019-01-14T22:48:33.215Z,7.62
2019-01-14T22:51:02.890Z,4.07
2019-01-14T22:53:32.576Z,10.03
2019-01-14T22:56:02.259Z,11.63
2019-01-14T22:58:31.944Z,6.87
2019-01-14T23:01:13.738Z,11.65
2019-01-14T23:03:46.236Z,7.80
2019-01-14T23:06:15.919Z,5.05
2019-01-14T23:08:46.108Z,10.72
2019-01-14T23:11:15.884Z,8.80
2019-01-14T23:13:45.538Z,8.58
2019-01-14T23:16:15.616Z,11.80
2019-01-14T23:18:45.303Z,7.60
2019-01-14T23:21:14.985Z,9.10
2019-01-14T23:23:44.844Z,10.23
2019-01-14T23:26:14.517Z,10.13
2019-01-14T23:28:44.532Z,12.60
2019-01-14T23:31:14.504Z,6.10
2019-01-14T23:33:44.337Z,13.50
2019-01-14T23:36:14.184Z,6.03
2019-01-14T23:38:44.245Z,9.53
2019-01-14T23:41:14.364Z,4.90
2019-01-14T23:43:44.373Z,8.80
2019-01-14T23:46:14.388Z,4.67
2019-01-14T23:48:44.088Z,10.40
2019-01-14T23:51:13.838Z,12.40
2019-01-14T23:53:43.517Z,8.28
2019-01-14T23:56:13.257Z,7.80
2019-01-14T23:58:42.966Z,5.70
